createdAt,value
2024-03-26T00:04:17.854Z,1.08
2024-03-26T00:09:20.863Z,0.92
2024-03-26T00:14:23.661Z,0.80
2024-03-26T00:19:26.458Z,0.71
2024-03-26T00:24:29.573Z,0.60
2024-03-26T00:29:32.574Z,0.49
2024-03-26T00:34:35.785Z,0.38
2024-03-26T00:39:38.792Z,0.29
2024-03-26T00:44:41.624Z,0.19
2024-03-26T00:49:44.500Z,0.10
2024-03-26T00:54:47.816Z,0.04
2024-03-26T00:59:50.823Z,-0.01
2024-03-26T01:04:54.029Z,-0.09
2024-03-26T01:09:56.934Z,-0.15
2024-03-26T01:14:59.844Z,-0.21
2024-03-26T01:20:02.742Z,-0.27
2024-03-26T01:25:08.550Z,-0.38
2024-03-26T01:30:11.942Z,-0.48
2024-03-26T01:35:15.164Z,-0.56
2024-03-26T01:40:18.263Z,-0.63
2024-03-26T01:45:21.159Z,-0.63
2024-03-26T01:50:24.183Z,-0.51
2024-03-26T01:55:27.686Z,-0.38
2024-03-26T02:00:31.768Z,-0.25
2024-03-26T02:05:34.622Z,-0.10
2024-03-26T02:10:37.523Z,0.03
2024-03-26T02:15:41.255Z,0.15
2024-03-26T02:20:45.724Z,0.25
2024-03-26T02:25:49.417Z,0.29
2024-03-26T02:30:52.331Z,0.32
2024-03-26T02:35:55.226Z,0.36
2024-03-26T02:40:58.123Z,0.40
2024-03-26T02:46:00.926Z,0.45
2024-03-26T02:51:04.246Z,0.48
2024-03-26T02:56:07.253Z,0.48
2024-03-26T03:01:12.000Z,0.51
2024-03-26T03:06:14.892Z,0.56
2024-03-26T03:11:17.702Z,0.60
2024-03-26T03:16:20.603Z,0.64
2024-03-26T03:21:23.506Z,0.70
2024-03-26T03:26:26.410Z,0.74
2024-03-26T03:31:30.955Z,0.80
2024-03-26T03:36:33.961Z,0.85
2024-03-26T03:41:36.763Z,0.89
2024-03-26T03:46:39.661Z,0.90
2024-03-26T03:51:42.568Z,0.88
2024-03-26T03:56:45.490Z,0.87
2024-03-26T04:01:49.043Z,0.88
2024-03-26T04:06:51.899Z,0.88
2024-03-26T04:11:55.442Z,0.90
2024-03-26T04:17:01.013Z,0.91
2024-03-26T04:22:03.987Z,0.90
2024-03-26T04:27:06.908Z,0.87
2024-03-26T04:32:09.895Z,0.84
2024-03-26T04:37:12.906Z,0.82
2024-03-26T04:42:15.714Z,0.80
2024-03-26T04:47:18.931Z,0.81
2024-03-26T04:52:21.928Z,0.82
2024-03-26T04:57:24.833Z,0.83
2024-03-26T05:02:27.840Z,0.81
2024-03-26T05:07:30.747Z,0.76
2024-03-26T05:12:33.644Z,0.74
2024-03-26T05:17:36.551Z,0.80
2024-03-26T05:22:39.663Z,0.95
2024-03-26T05:27:42.665Z,1.14
2024-03-26T05:32:45.564Z,1.37
2024-03-26T05:37:50.120Z,1.80
2024-03-26T05:42:53.015Z,2.57
2024-03-26T05:47:55.957Z,3.29
2024-03-26T05:53:00.352Z,4.79
2024-03-26T05:58:03.674Z,6.67
2024-03-26T06:03:06.998Z,8.65
2024-03-26T06:08:09.997Z,11.08
2024-03-26T06:13:13.036Z,13.51
2024-03-26T06:18:16.540Z,15.21
2024-03-26T06:23:19.531Z,16.41
2024-03-26T06:28:23.045Z,16.72
2024-03-26T06:33:26.719Z,17.50
2024-03-26T06:38:30.701Z,18.55
2024-03-26T06:43:33.702Z,19.50
2024-03-26T06:48:36.611Z,20.49
2024-03-26T06:53:39.518Z,21.01
2024-03-26T06:58:46.418Z,21.52
2024-03-26T07:03:49.320Z,22.10
2024-03-26T07:08:52.544Z,22.63
2024-03-26T07:13:55.433Z,23.07
2024-03-26T07:18:58.336Z,23.09
2024-03-26T07:24:01.253Z,22.95
2024-03-26T07:29:04.155Z,23.14
2024-03-26T07:34:07.063Z,23.36
2024-03-26T07:39:16.722Z,23.30
2024-03-26T07:44:19.772Z,23.38
2024-03-26T07:49:22.725Z,23.49
2024-03-26T07:54:25.631Z,23.73
2024-03-26T07:59:28.746Z,24.09
2024-03-26T08:04:31.651Z,24.00
2024-03-26T08:09:34.764Z,23.77
2024-03-26T08:14:40.709Z,23.88
2024-03-26T08:19:43.736Z,23.57
2024-03-26T08:24:46.514Z,23.53
2024-03-26T08:29:49.544Z,23.27
2024-03-26T08:34:52.446Z,22.86
2024-03-26T08:39:57.090Z,21.90
2024-03-26T08:45:00.288Z,19.45
2024-03-26T08:50:03.925Z,16.22
2024-03-26T08:55:07.403Z,14.17
2024-03-26T09:00:12.046Z,12.99
2024-03-26T09:05:14.997Z,12.22
2024-03-26T09:10:17.910Z,11.79
2024-03-26T09:15:20.821Z,11.65
2024-03-26T09:20:23.705Z,11.53
2024-03-26T09:25:26.692Z,11.33
2024-03-26T09:30:29.720Z,11.14
2024-03-26T09:35:32.626Z,11.15
2024-03-26T09:40:36.042Z,11.28
2024-03-26T09:45:38.948Z,11.21
2024-03-26T09:50:43.521Z,11.30
2024-03-26T09:55:47.519Z,11.46
2024-03-26T10:00:51.346Z,11.58
2024-03-26T10:05:55.002Z,11.65
2024-03-26T10:10:57.969Z,11.85
2024-03-26T10:16:01.561Z,12.09
2024-03-26T10:21:09.113Z,12.24
2024-03-26T10:26:12.108Z,12.23
2024-03-26T10:31:15.235Z,12.32
2024-03-26T10:36:18.424Z,12.51
2024-03-26T10:41:51.234Z,12.59
2024-03-26T10:46:55.169Z,12.60
2024-03-26T10:52:01.253Z,12.74
2024-03-26T10:57:05.250Z,12.70
2024-03-26T11:02:09.922Z,12.65
2024-03-26T11:07:14.841Z,12.68
2024-03-26T11:12:22.311Z,12.87
2024-03-26T11:17:25.793Z,13.10
2024-03-26T11:22:28.652Z,13.15
2024-03-26T11:27:32.231Z,13.04
2024-03-26T11:32:35.229Z,12.96
2024-03-26T11:37:40.518Z,12.99
2024-03-26T11:42:45.800Z,13.18
2024-03-26T11:47:48.952Z,13.50
2024-03-26T11:52:51.865Z,13.80
2024-03-26T11:57:55.179Z,14.00
2024-03-26T12:02:58.177Z,13.86
2024-03-26T12:08:01.186Z,13.56
2024-03-26T12:13:05.646Z,13.37
2024-03-26T12:18:08.539Z,13.32
2024-03-26T12:23:11.538Z,13.33
2024-03-26T12:28:14.663Z,13.27
2024-03-26T12:33:19.502Z,13.17
2024-03-26T12:38:22.810Z,13.11
2024-03-26T12:43:25.815Z,12.92
2024-03-26T12:48:29.489Z,12.73
2024-03-26T12:53:32.448Z,12.51
2024-03-26T12:58:35.558Z,12.32
2024-03-26T13:03:38.642Z,12.29
2024-03-26T13:08:41.669Z,12.22
2024-03-26T13:13:46.597Z,12.25
2024-03-26T13:18:49.530Z,12.16
2024-03-26T13:23:52.537Z,12.15
2024-03-26T13:28:55.441Z,12.35
2024-03-26T13:33:58.444Z,12.47
2024-03-26T13:39:01.663Z,12.59
2024-03-26T13:44:04.860Z,12.77
2024-03-26T13:49:16.388Z,13.01
2024-03-26T13:54:19.574Z,13.10
2024-03-26T13:59:22.482Z,12.92
2024-03-26T14:04:25.394Z,12.70
2024-03-26T14:09:29.012Z,12.46
2024-03-26T14:14:31.924Z,12.31
2024-03-26T14:19:34.925Z,12.26
2024-03-26T14:24:37.831Z,12.11
2024-03-26T14:29:40.810Z,11.91
2024-03-26T14:34:43.742Z,11.92
2024-03-26T14:39:46.645Z,11.91
2024-03-26T14:44:49.767Z,11.71
2024-03-26T14:49:52.761Z,11.61
2024-03-26T14:54:55.978Z,11.42
2024-03-26T14:59:59.080Z,11.27
2024-03-26T15:05:05.639Z,11.16
2024-03-26T15:10:08.881Z,11.05
2024-03-26T15:15:11.945Z,11.01
2024-03-26T15:20:18.181Z,11.02
2024-03-26T15:25:23.744Z,11.08
2024-03-26T15:30:45.684Z,11.08
2024-03-26T15:35:48.492Z,10.96
2024-03-26T15:40:51.401Z,10.87
2024-03-26T15:45:54.403Z,10.83
2024-03-26T15:50:57.405Z,10.80
2024-03-26T15:56:00.334Z,10.69
2024-03-26T16:01:03.419Z,10.56
2024-03-26T16:06:07.423Z,10.47
2024-03-26T16:11:13.854Z,10.40
2024-03-26T16:16:17.258Z,10.33
2024-03-26T16:21:20.416Z,10.20
2024-03-26T16:26:23.371Z,10.05
2024-03-26T16:31:26.279Z,9.88
2024-03-26T16:36:29.381Z,9.71
2024-03-26T16:41:35.310Z,9.58
2024-03-26T16:46:39.767Z,9.44
2024-03-26T16:51:43.866Z,9.30
2024-03-26T16:56:46.840Z,9.20
2024-03-26T17:01:50.048Z,9.10
2024-03-26T17:06:52.959Z,8.98
2024-03-26T17:11:55.850Z,8.86
2024-03-26T17:17:09.642Z,8.76
2024-03-26T17:22:17.549Z,8.70
2024-03-26T17:27:20.646Z,8.59
2024-03-26T17:32:23.885Z,8.50
2024-03-26T17:37:26.815Z,8.42
2024-03-26T17:42:33.556Z,8.32
2024-03-26T17:47:36.772Z,8.23
2024-03-26T17:52:40.085Z,8.13
2024-03-26T17:57:43.088Z,8.03
2024-03-26T18:02:49.636Z,7.98
2024-03-26T18:07:52.592Z,7.91
2024-03-26T18:12:55.487Z,7.84
2024-03-26T18:17:58.412Z,7.79
2024-03-26T18:23:01.395Z,7.79
2024-03-26T18:28:05.017Z,7.82
2024-03-26T18:33:07.923Z,7.87
2024-03-26T18:38:10.832Z,7.91
2024-03-26T18:43:13.835Z,7.94
2024-03-26T18:48:17.088Z,7.91
2024-03-26T18:53:20.062Z,7.89
2024-03-26T18:58:22.970Z,7.86
2024-03-26T19:03:26.477Z,7.85
2024-03-26T19:08:29.526Z,7.85
2024-03-26T19:13:35.666Z,7.85
2024-03-26T19:18:38.789Z,7.80
2024-03-26T19:23:41.882Z,7.76
2024-03-26T19:28:44.786Z,7.74
2024-03-26T19:33:49.131Z,7.71
2024-03-26T19:38:53.255Z,7.70
2024-03-26T19:43:56.507Z,7.69
2024-03-26T19:48:59.788Z,7.71
2024-03-26T19:54:02.958Z,7.70
2024-03-26T19:59:05.898Z,7.68
2024-03-26T20:04:09.355Z,7.67
2024-03-26T20:09:12.536Z,7.70
2024-03-26T20:14:15.745Z,7.69
2024-03-26T20:19:18.716Z,7.67
2024-03-26T20:24:22.282Z,7.68
2024-03-26T20:29:25.291Z,7.71
2024-03-26T20:34:31.144Z,7.74
2024-03-26T20:39:34.156Z,7.75
2024-03-26T20:44:37.485Z,7.76
2024-03-26T20:49:40.888Z,7.75
2024-03-26T20:54:44.101Z,7.73
2024-03-26T20:59:47.500Z,7.69
2024-03-26T21:04:50.820Z,7.66
2024-03-26T21:09:53.966Z,7.62
2024-03-26T21:14:57.044Z,7.56
2024-03-26T21:20:01.892Z,7.50
2024-03-26T21:25:06.775Z,7.41
2024-03-26T21:30:10.503Z,7.35
2024-03-26T21:35:13.784Z,7.25
2024-03-26T21:40:17.207Z,7.17
2024-03-26T21:45:20.099Z,7.07
2024-03-26T21:50:23.112Z,7.04
2024-03-26T21:55:26.108Z,6.99
2024-03-26T22:00:29.059Z,6.94
2024-03-26T22:05:32.941Z,6.90
2024-03-26T22:10:38.611Z,6.87
2024-03-26T22:15:42.917Z,6.87
2024-03-26T22:20:55.796Z,6.87
2024-03-26T22:26:02.096Z,6.84
2024-03-26T22:31:06.750Z,6.84
2024-03-26T22:36:10.185Z,6.80
2024-03-26T22:41:13.032Z,6.78
2024-03-26T22:46:15.934Z,6.74
2024-03-26T22:51:18.738Z,6.70
2024-03-26T22:56:21.964Z,6.66
2024-03-26T23:01:24.916Z,6.65
2024-03-26T23:06:27.970Z,6.64
2024-03-26T23:11:31.195Z,6.67
2024-03-26T23:16:34.080Z,6.67
2024-03-26T23:21:37.097Z,6.62
2024-03-26T23:26:40.200Z,6.58
2024-03-26T23:31:43.204Z,6.56
2024-03-26T23:36:46.103Z,6.54
2024-03-26T23:41:49.217Z,6.52
2024-03-26T23:46:52.117Z,6.48
2024-03-26T23:51:55.024Z,6.43
2024-03-26T23:56:57.827Z,6.39
